sensor_id;sensor_type;location;lat;lon;timestamp;P1;durP1;ratioP1;P2;durP2;ratioP2
77117;SDS011;66072;50.238;19.228;2023-04-02T00:08:55;29.10;;;15.20;;
77117;SDS011;66072;50.238;19.228;2023-04-02T00:11:28;30.20;;;14.90;;
77117;SDS011;66072;50.238;19.228;2023-04-02T00:13:59;29.80;;;15.80;;
77117;SDS011;66072;50.238;19.228;2023-04-02T00:16:28;33.10;;;16.80;;
77117;SDS011;66072;50.238;19.228;2023-04-02T00:18:58;34.60;;;16.90;;
77117;SDS011;66072;50.238;19.228;2023-04-02T00:21:31;29.00;;;15.50;;
77117;SDS011;66072;50.238;19.228;2023-04-02T00:24:12;33.50;;;16.70;;
77117;SDS011;66072;50.238;19.228;2023-04-02T00:26:43;31.90;;;14.80;;
77117;SDS011;66072;50.238;19.228;2023-04-02T00:29:18;30.30;;;16.20;;
77117;SDS011;66072;50.238;19.228;2023-04-02T00:31:47;32.10;;;15.70;;
77117;SDS011;66072;50.238;19.228;2023-04-02T00:34:24;35.50;;;17.30;;
77117;SDS011;66072;50.238;19.228;2023-04-02T00:36:56;30.20;;;16.10;;
77117;SDS011;66072;50.238;19.228;2023-04-02T00:39:26;30.80;;;15.90;;
77117;SDS011;66072;50.238;19.228;2023-04-02T00:41:56;35.20;;;16.50;;
77117;SDS011;66072;50.238;19.228;2023-04-02T00:44:25;35.20;;;17.20;;
77117;SDS011;66072;50.238;19.228;2023-04-02T00:46:54;34.00;;;17.50;;
77117;SDS011;66072;50.238;19.228;2023-04-02T00:49:30;32.80;;;15.40;;
77117;SDS011;66072;50.238;19.228;2023-04-02T00:52:06;32.10;;;15.90;;
77117;SDS011;66072;50.238;19.228;2023-04-02T00:54:45;35.40;;;17.10;;
77117;SDS011;66072;50.238;19.228;2023-04-02T00:57:18;35.80;;;17.70;;
77117;SDS011;66072;50.238;19.228;2023-04-02T00:59:56;39.40;;;17.70;;
77117;SDS011;66072;50.238;19.228;2023-04-02T01:02:36;35.70;;;17.30;;
77117;SDS011;66072;50.238;19.228;2023-04-02T01:16:14;35.30;;;17.20;;
77117;SDS011;66072;50.238;19.228;2023-04-02T01:18:57;33.80;;;16.70;;
77117;SDS011;66072;50.238;19.228;2023-04-02T01:21:40;35.10;;;16.60;;
77117;SDS011;66072;50.238;19.228;2023-04-02T01:24:12;37.90;;;17.70;;
77117;SDS011;66072;50.238;19.228;2023-04-02T01:26:44;36.10;;;16.00;;
77117;SDS011;66072;50.238;19.228;2023-04-02T01:29:34;36.60;;;17.80;;
77117;SDS011;66072;50.238;19.228;2023-04-02T01:32:06;34.80;;;15.90;;
77117;SDS011;66072;50.238;19.228;2023-04-02T01:34:37;36.60;;;15.50;;
77117;SDS011;66072;50.238;19.228;2023-04-02T01:37:08;33.80;;;15.00;;
77117;SDS011;66072;50.238;19.228;2023-04-02T01:42:20;30.30;;;14.80;;
77117;SDS011;66072;50.238;19.228;2023-04-02T01:45:03;30.30;;;15.80;;
77117;SDS011;66072;50.238;19.228;2023-04-02T01:47:34;34.30;;;14.20;;
77117;SDS011;66072;50.238;19.228;2023-04-02T01:52:57;28.70;;;13.70;;
77117;SDS011;66072;50.238;19.228;2023-04-02T01:55:42;27.40;;;13.20;;
77117;SDS011;66072;50.238;19.228;2023-04-02T01:58:13;26.50;;;14.20;;
77117;SDS011;66072;50.238;19.228;2023-04-02T02:01:05;31.50;;;12.50;;
77117;SDS011;66072;50.238;19.228;2023-04-02T02:03:39;26.70;;;12.70;;
77117;SDS011;66072;50.238;19.228;2023-04-02T02:06:10;31.40;;;13.80;;
77117;SDS011;66072;50.238;19.228;2023-04-02T02:08:44;31.90;;;14.00;;
77117;SDS011;66072;50.238;19.228;2023-04-02T02:11:17;29.10;;;13.10;;
77117;SDS011;66072;50.238;19.228;2023-04-02T02:13:52;25.20;;;12.30;;
77117;SDS011;66072;50.238;19.228;2023-04-02T02:16:22;26.70;;;12.50;;
77117;SDS011;66072;50.238;19.228;2023-04-02T02:18:52;32.50;;;13.60;;
77117;SDS011;66072;50.238;19.228;2023-04-02T02:21:28;21.10;;;10.10;;
77117;SDS011;66072;50.238;19.228;2023-04-02T02:23:59;29.40;;;12.20;;
77117;SDS011;66072;50.238;19.228;2023-04-02T02:26:28;28.60;;;14.80;;
77117;SDS011;66072;50.238;19.228;2023-04-02T02:28:59;27.80;;;12.50;;
77117;SDS011;66072;50.238;19.228;2023-04-02T02:31:29;28.60;;;13.40;;
77117;SDS011;66072;50.238;19.228;2023-04-02T02:34:01;28.20;;;13.30;;
77117;SDS011;66072;50.238;19.228;2023-04-02T02:39:25;30.00;;;14.00;;
77117;SDS011;66072;50.238;19.228;2023-04-02T02:42:46;27.10;;;12.00;;
77117;SDS011;66072;50.238;19.228;2023-04-02T02:44:59;28.70;;;12.90;;
77117;SDS011;66072;50.238;19.228;2023-04-02T02:47:32;24.70;;;11.30;;
77117;SDS011;66072;50.238;19.228;2023-04-02T02:50:03;22.90;;;12.30;;
77117;SDS011;66072;50.238;19.228;2023-04-02T02:52:35;25.90;;;12.70;;
77117;SDS011;66072;50.238;19.228;2023-04-02T02:55:11;25.40;;;12.80;;
77117;SDS011;66072;50.238;19.228;2023-04-02T02:57:44;20.70;;;11.60;;
77117;SDS011;66072;50.238;19.228;2023-04-02T03:00:15;26.20;;;12.40;;
77117;SDS011;66072;50.238;19.228;2023-04-02T03:02:44;24.80;;;11.40;;
77117;SDS011;66072;50.238;19.228;2023-04-02T03:05:16;23.40;;;10.20;;
77117;SDS011;66072;50.238;19.228;2023-04-02T03:07:48;25.00;;;10.30;;
77117;SDS011;66072;50.238;19.228;2023-04-02T03:10:33;27.40;;;11.80;;
77117;SDS011;66072;50.238;19.228;2023-04-02T03:13:39;21.20;;;10.80;;
77117;SDS011;66072;50.238;19.228;2023-04-02T03:16:29;22.80;;;10.60;;
77117;SDS011;66072;50.238;19.228;2023-04-02T03:21:47;22.80;;;11.10;;
77117;SDS011;66072;50.238;19.228;2023-04-02T03:26:55;18.20;;;9.40;;
77117;SDS011;66072;50.238;19.228;2023-04-02T03:29:29;20.20;;;10.30;;
77117;SDS011;66072;50.238;19.228;2023-04-02T03:32:02;18.50;;;9.40;;
77117;SDS011;66072;50.238;19.228;2023-04-02T03:34:35;20.90;;;10.70;;
77117;SDS011;66072;50.238;19.228;2023-04-02T03:37:19;18.80;;;8.90;;
77117;SDS011;66072;50.238;19.228;2023-04-02T03:40:07;20.30;;;10.50;;
77117;SDS011;66072;50.238;19.228;2023-04-02T03:42:43;19.20;;;8.90;;
77117;SDS011;66072;50.238;19.228;2023-04-02T03:45:28;23.60;;;10.70;;
77117;SDS011;66072;50.238;19.228;2023-04-02T03:53:23;21.00;;;10.60;;
77117;SDS011;66072;50.238;19.228;2023-04-02T03:55:52;20.20;;;10.10;;
77117;SDS011;66072;50.238;19.228;2023-04-02T03:58:23;24.30;;;11.70;;
77117;SDS011;66072;50.238;19.228;2023-04-02T04:03:48;24.90;;;11.60;;
77117;SDS011;66072;50.238;19.228;2023-04-02T04:08:58;21.60;;;9.90;;
77117;SDS011;66072;50.238;19.228;2023-04-02T04:11:34;22.90;;;11.70;;
77117;SDS011;66072;50.238;19.228;2023-04-02T04:19:32;21.00;;;10.40;;
77117;SDS011;66072;50.238;19.228;2023-04-02T04:22:13;22.60;;;11.50;;
77117;SDS011;66072;50.238;19.228;2023-04-02T04:24:48;19.70;;;10.90;;
77117;SDS011;66072;50.238;19.228;2023-04-02T04:27:30;22.90;;;11.10;;
77117;SDS011;66072;50.238;19.228;2023-04-02T04:30:43;23.80;;;11.60;;
77117;SDS011;66072;50.238;19.228;2023-04-02T04:35:46;24.20;;;12.80;;
77117;SDS011;66072;50.238;19.228;2023-04-02T04:38:29;25.70;;;12.40;;
77117;SDS011;66072;50.238;19.228;2023-04-02T04:41:16;27.00;;;12.40;;
77117;SDS011;66072;50.238;19.228;2023-04-02T04:46:29;23.30;;;11.50;;
77117;SDS011;66072;50.238;19.228;2023-04-02T04:49:16;22.60;;;11.50;;
77117;SDS011;66072;50.238;19.228;2023-04-02T04:54:24;23.00;;;12.00;;
77117;SDS011;66072;50.238;19.228;2023-04-02T04:56:54;25.10;;;12.40;;
77117;SDS011;66072;50.238;19.228;2023-04-02T04:59:26;22.80;;;11.90;;
77117;SDS011;66072;50.238;19.228;2023-04-02T05:02:03;24.40;;;12.70;;
77117;SDS011;66072;50.238;19.228;2023-04-02T05:04:38;26.30;;;12.30;;
77117;SDS011;66072;50.238;19.228;2023-04-02T05:07:14;24.10;;;13.00;;
77117;SDS011;66072;50.238;19.228;2023-04-02T05:12:51;23.00;;;11.50;;
77117;SDS011;66072;50.238;19.228;2023-04-02T05:15:29;25.60;;;12.10;;
77117;SDS011;66072;50.238;19.228;2023-04-02T05:28:51;24.60;;;12.40;;
77117;SDS011;66072;50.238;19.228;2023-04-02T05:31:29;26.20;;;12.90;;
77117;SDS011;66072;50.238;19.228;2023-04-02T05:34:04;24.00;;;12.60;;
77117;SDS011;66072;50.238;19.228;2023-04-02T05:36:32;28.00;;;12.50;;
77117;SDS011;66072;50.238;19.228;2023-04-02T05:39:01;23.30;;;11.80;;
77117;SDS011;66072;50.238;19.228;2023-04-02T05:41:30;30.60;;;13.80;;
77117;SDS011;66072;50.238;19.228;2023-04-02T05:44:10;24.10;;;12.00;;
77117;SDS011;66072;50.238;19.228;2023-04-02T05:46:48;18.00;;;9.50;;
77117;SDS011;66072;50.238;19.228;2023-04-02T05:52:07;14.70;;;7.10;;
77117;SDS011;66072;50.238;19.228;2023-04-02T05:57:41;15.90;;;7.20;;
77117;SDS011;66072;50.238;19.228;2023-04-02T06:03:05;11.60;;;5.70;;
77117;SDS011;66072;50.238;19.228;2023-04-02T06:05:44;7.80;;;4.10;;
77117;SDS011;66072;50.238;19.228;2023-04-02T06:08:20;8.60;;;4.20;;
77117;SDS011;66072;50.238;19.228;2023-04-02T06:11:07;6.60;;;3.10;;
77117;SDS011;66072;50.238;19.228;2023-04-02T06:13:38;5.80;;;2.70;;
77117;SDS011;66072;50.238;19.228;2023-04-02T06:16:05;6.20;;;3.00;;
77117;SDS011;66072;50.238;19.228;2023-04-02T06:18:34;6.10;;;2.80;;
77117;SDS011;66072;50.238;19.228;2023-04-02T06:21:03;5.30;;;3.10;;
77117;SDS011;66072;50.238;19.228;2023-04-02T06:26:33;5.90;;;3.30;;
77117;SDS011;66072;50.238;19.228;2023-04-02T06:29:06;4.70;;;2.80;;
77117;SDS011;66072;50.238;19.228;2023-04-02T06:31:43;6.00;;;3.00;;
77117;SDS011;66072;50.238;19.228;2023-04-02T06:34:19;4.40;;;2.60;;
77117;SDS011;66072;50.238;19.228;2023-04-02T06:36:48;6.20;;;2.80;;
77117;SDS011;66072;50.238;19.228;2023-04-02T06:39:19;5.50;;;3.30;;
77117;SDS011;66072;50.238;19.228;2023-04-02T06:41:55;4.60;;;2.20;;
77117;SDS011;66072;50.238;19.228;2023-04-02T06:44:31;4.30;;;2.20;;
77117;SDS011;66072;50.238;19.228;2023-04-02T06:47:06;3.10;;;2.00;;
77117;SDS011;66072;50.238;19.228;2023-04-02T06:49:46;4.00;;;1.90;;
77117;SDS011;66072;50.238;19.228;2023-04-02T06:52:22;3.80;;;1.80;;
77117;SDS011;66072;50.238;19.228;2023-04-02T06:54:53;3.20;;;1.90;;
77117;SDS011;66072;50.238;19.228;2023-04-02T06:57:21;4.10;;;1.90;;
77117;SDS011;66072;50.238;19.228;2023-04-02T06:59:48;4.30;;;2.10;;
77117;SDS011;66072;50.238;19.228;2023-04-02T07:04:54;3.50;;;1.90;;
77117;SDS011;66072;50.238;19.228;2023-04-02T07:07:26;3.30;;;1.90;;
77117;SDS011;66072;50.238;19.228;2023-04-02T07:09:54;3.10;;;1.40;;
77117;SDS011;66072;50.238;19.228;2023-04-02T07:12:22;3.70;;;2.00;;
77117;SDS011;66072;50.238;19.228;2023-04-02T07:14:51;3.70;;;1.70;;
77117;SDS011;66072;50.238;19.228;2023-04-02T07:17:19;3.00;;;1.60;;
77117;SDS011;66072;50.238;19.228;2023-04-02T07:19:47;3.80;;;2.20;;
77117;SDS011;66072;50.238;19.228;2023-04-02T07:22:16;3.20;;;1.80;;
77117;SDS011;66072;50.238;19.228;2023-04-02T07:24:45;3.10;;;1.70;;
77117;SDS011;66072;50.238;19.228;2023-04-02T07:27:13;3.20;;;1.70;;
77117;SDS011;66072;50.238;19.228;2023-04-02T07:29:41;3.30;;;1.60;;
77117;SDS011;66072;50.238;19.228;2023-04-02T07:32:09;3.60;;;1.40;;
77117;SDS011;66072;50.238;19.228;2023-04-02T07:34:38;3.40;;;1.60;;
77117;SDS011;66072;50.238;19.228;2023-04-02T07:37:08;2.80;;;1.40;;
77117;SDS011;66072;50.238;19.228;2023-04-02T07:39:39;4.20;;;1.90;;
77117;SDS011;66072;50.238;19.228;2023-04-02T07:42:07;5.20;;;2.20;;
77117;SDS011;66072;50.238;19.228;2023-04-02T07:44:34;2.70;;;1.40;;
77117;SDS011;66072;50.238;19.228;2023-04-02T07:47:02;4.30;;;2.50;;
77117;SDS011;66072;50.238;19.228;2023-04-02T07:49:30;3.40;;;1.80;;
77117;SDS011;66072;50.238;19.228;2023-04-02T07:51:58;4.00;;;2.30;;
77117;SDS011;66072;50.238;19.228;2023-04-02T07:54:25;4.40;;;2.00;;
77117;SDS011;66072;50.238;19.228;2023-04-02T07:56:53;3.90;;;2.00;;
77117;SDS011;66072;50.238;19.228;2023-04-02T07:59:21;4.90;;;2.60;;
77117;SDS011;66072;50.238;19.228;2023-04-02T08:01:50;5.60;;;2.80;;
77117;SDS011;66072;50.238;19.228;2023-04-02T08:06:48;5.50;;;2.90;;
77117;SDS011;66072;50.238;19.228;2023-04-02T08:09:16;4.80;;;2.30;;
77117;SDS011;66072;50.238;19.228;2023-04-02T08:11:44;5.40;;;2.70;;
77117;SDS011;66072;50.238;19.228;2023-04-02T08:14:12;4.90;;;2.90;;
77117;SDS011;66072;50.238;19.228;2023-04-02T08:16:46;5.30;;;3.00;;
77117;SDS011;66072;50.238;19.228;2023-04-02T08:19:19;5.20;;;3.30;;
77117;SDS011;66072;50.238;19.228;2023-04-02T08:21:47;3.60;;;1.90;;
77117;SDS011;66072;50.238;19.228;2023-04-02T08:24:16;4.30;;;2.30;;
77117;SDS011;66072;50.238;19.228;2023-04-02T08:26:44;4.00;;;2.30;;
77117;SDS011;66072;50.238;19.228;2023-04-02T08:29:12;3.80;;;2.00;;
77117;SDS011;66072;50.238;19.228;2023-04-02T08:31:40;3.50;;;2.00;;
77117;SDS011;66072;50.238;19.228;2023-04-02T08:34:08;4.30;;;2.40;;
77117;SDS011;66072;50.238;19.228;2023-04-02T08:36:37;3.80;;;1.70;;
77117;SDS011;66072;50.238;19.228;2023-04-02T08:39:06;4.30;;;2.10;;
77117;SDS011;66072;50.238;19.228;2023-04-02T08:41:35;4.60;;;2.00;;
77117;SDS011;66072;50.238;19.228;2023-04-02T08:44:18;3.50;;;1.80;;
77117;SDS011;66072;50.238;19.228;2023-04-02T08:46:50;3.60;;;2.10;;
77117;SDS011;66072;50.238;19.228;2023-04-02T08:49:37;3.60;;;1.70;;
77117;SDS011;66072;50.238;19.228;2023-04-02T08:52:21;2.30;;;1.40;;
77117;SDS011;66072;50.238;19.228;2023-04-02T08:54:51;3.10;;;1.50;;
77117;SDS011;66072;50.238;19.228;2023-04-02T08:57:34;2.40;;;1.10;;
77117;SDS011;66072;50.238;19.228;2023-04-02T09:00:18;2.50;;;1.30;;
77117;SDS011;66072;50.238;19.228;2023-04-02T09:03:05;3.00;;;1.10;;
77117;SDS011;66072;50.238;19.228;2023-04-02T09:05:38;2.80;;;1.20;;
77117;SDS011;66072;50.238;19.228;2023-04-02T09:08:16;2.10;;;1.10;;
77117;SDS011;66072;50.238;19.228;2023-04-02T09:13:43;3.00;;;1.60;;
77117;SDS011;66072;50.238;19.228;2023-04-02T09:16:14;4.00;;;1.90;;
77117;SDS011;66072;50.238;19.228;2023-04-02T09:18:43;3.20;;;1.90;;
77117;SDS011;66072;50.238;19.228;2023-04-02T09:23:48;3.90;;;1.90;;
77117;SDS011;66072;50.238;19.228;2023-04-02T09:26:19;4.40;;;2.00;;
77117;SDS011;66072;50.238;19.228;2023-04-02T09:28:54;4.50;;;2.60;;
77117;SDS011;66072;50.238;19.228;2023-04-02T09:31:49;4.10;;;2.60;;
77117;SDS011;66072;50.238;19.228;2023-04-02T09:34:26;5.40;;;2.80;;
77117;SDS011;66072;50.238;19.228;2023-04-02T09:37:35;5.10;;;3.00;;
77117;SDS011;66072;50.238;19.228;2023-04-02T09:40:07;3.80;;;2.40;;
77117;SDS011;66072;50.238;19.228;2023-04-02T09:42:42;4.80;;;3.20;;
77117;SDS011;66072;50.238;19.228;2023-04-02T09:45:22;6.40;;;3.90;;
77117;SDS011;66072;50.238;19.228;2023-04-02T09:47:51;4.70;;;2.70;;
77117;SDS011;66072;50.238;19.228;2023-04-02T09:50:26;6.50;;;4.00;;
77117;SDS011;66072;50.238;19.228;2023-04-02T09:52:56;4.20;;;2.60;;
77117;SDS011;66072;50.238;19.228;2023-04-02T09:55:27;6.10;;;3.60;;
77117;SDS011;66072;50.238;19.228;2023-04-02T09:58:15;6.10;;;3.50;;
77117;SDS011;66072;50.238;19.228;2023-04-02T10:00:49;5.40;;;3.60;;
77117;SDS011;66072;50.238;19.228;2023-04-02T10:03:28;5.60;;;3.40;;
77117;SDS011;66072;50.238;19.228;2023-04-02T10:06:05;5.00;;;3.30;;
77117;SDS011;66072;50.238;19.228;2023-04-02T10:08:35;4.90;;;3.60;;
77117;SDS011;66072;50.238;19.228;2023-04-02T10:11:07;4.00;;;2.80;;
77117;SDS011;66072;50.238;19.228;2023-04-02T10:13:49;5.50;;;3.30;;
77117;SDS011;66072;50.238;19.228;2023-04-02T10:16:21;4.10;;;2.90;;
77117;SDS011;66072;50.238;19.228;2023-04-02T10:18:57;4.90;;;3.60;;
77117;SDS011;66072;50.238;19.228;2023-04-02T10:21:27;6.20;;;4.30;;
77117;SDS011;66072;50.238;19.228;2023-04-02T10:23:58;5.90;;;4.20;;
77117;SDS011;66072;50.238;19.228;2023-04-02T10:26:32;6.20;;;3.50;;
77117;SDS011;66072;50.238;19.228;2023-04-02T10:32:45;7.40;;;4.20;;
77117;SDS011;66072;50.238;19.228;2023-04-02T10:35:17;11.40;;;7.10;;
77117;SDS011;66072;50.238;19.228;2023-04-02T10:38:00;10.10;;;6.60;;
77117;SDS011;66072;50.238;19.228;2023-04-02T10:57:48;7.20;;;4.20;;
77117;SDS011;66072;50.238;19.228;2023-04-02T11:00:21;8.50;;;5.40;;
77117;SDS011;66072;50.238;19.228;2023-04-02T11:03:01;6.50;;;4.30;;
77117;SDS011;66072;50.238;19.228;2023-04-02T11:16:22;8.50;;;4.40;;
77117;SDS011;66072;50.238;19.228;2023-04-02T11:21:47;6.90;;;4.20;;
77117;SDS011;66072;50.238;19.228;2023-04-02T11:27:04;4.90;;;3.20;;
77117;SDS011;66072;50.238;19.228;2023-04-02T11:29:51;4.70;;;2.20;;
77117;SDS011;66072;50.238;19.228;2023-04-02T12:12:14;5.90;;;3.20;;
77117;SDS011;66072;50.238;19.228;2023-04-02T12:14:45;8.00;;;5.20;;
77117;SDS011;66072;50.238;19.228;2023-04-02T12:17:20;15.80;;;8.10;;
77117;SDS011;66072;50.238;19.228;2023-04-02T12:19:51;9.70;;;6.20;;
77117;SDS011;66072;50.238;19.228;2023-04-02T12:22:22;16.90;;;9.30;;
77117;SDS011;66072;50.238;19.228;2023-04-02T12:24:53;12.80;;;8.00;;
77117;SDS011;66072;50.238;19.228;2023-04-02T12:27:26;10.50;;;6.40;;
77117;SDS011;66072;50.238;19.228;2023-04-02T12:29:58;8.90;;;6.10;;
77117;SDS011;66072;50.238;19.228;2023-04-02T12:33:12;7.90;;;5.00;;
77117;SDS011;66072;50.238;19.228;2023-04-02T12:35:41;10.60;;;6.00;;
77117;SDS011;66072;50.238;19.228;2023-04-02T12:38:17;6.70;;;4.90;;
77117;SDS011;66072;50.238;19.228;2023-04-02T12:40:50;8.40;;;5.90;;
77117;SDS011;66072;50.238;19.228;2023-04-02T12:43:29;7.60;;;4.20;;
77117;SDS011;66072;50.238;19.228;2023-04-02T12:45:59;8.70;;;5.90;;
77117;SDS011;66072;50.238;19.228;2023-04-02T12:48:29;10.50;;;6.10;;
77117;SDS011;66072;50.238;19.228;2023-04-02T12:50:58;9.80;;;6.40;;
77117;SDS011;66072;50.238;19.228;2023-04-02T12:56:02;12.20;;;7.50;;
77117;SDS011;66072;50.238;19.228;2023-04-02T12:58:40;10.40;;;6.60;;
77117;SDS011;66072;50.238;19.228;2023-04-02T13:01:13;14.00;;;8.30;;
77117;SDS011;66072;50.238;19.228;2023-04-02T13:03:42;13.10;;;8.80;;
77117;SDS011;66072;50.238;19.228;2023-04-02T13:06:19;11.60;;;7.90;;
77117;SDS011;66072;50.238;19.228;2023-04-02T13:08:49;8.60;;;5.00;;
77117;SDS011;66072;50.238;19.228;2023-04-02T13:11:17;9.60;;;6.40;;
77117;SDS011;66072;50.238;19.228;2023-04-02T13:13:48;13.20;;;8.40;;
77117;SDS011;66072;50.238;19.228;2023-04-02T13:18:46;14.00;;;8.80;;
77117;SDS011;66072;50.238;19.228;2023-04-02T13:23:44;10.10;;;5.70;;
77117;SDS011;66072;50.238;19.228;2023-04-02T13:26:22;6.70;;;4.40;;
77117;SDS011;66072;50.238;19.228;2023-04-02T13:31:27;9.20;;;5.00;;
77117;SDS011;66072;50.238;19.228;2023-04-02T13:33:59;10.20;;;6.70;;
77117;SDS011;66072;50.238;19.228;2023-04-02T13:36:27;14.10;;;8.80;;
77117;SDS011;66072;50.238;19.228;2023-04-02T13:38:57;12.90;;;8.40;;
77117;SDS011;66072;50.238;19.228;2023-04-02T13:41:29;8.10;;;4.80;;
77117;SDS011;66072;50.238;19.228;2023-04-02T13:44:00;9.30;;;6.90;;
77117;SDS011;66072;50.238;19.228;2023-04-02T13:46:30;11.50;;;7.20;;
77117;SDS011;66072;50.238;19.228;2023-04-02T13:49:00;13.80;;;8.30;;
77117;SDS011;66072;50.238;19.228;2023-04-02T13:51:36;10.80;;;6.40;;
77117;SDS011;66072;50.238;19.228;2023-04-02T13:54:12;10.00;;;6.20;;
77117;SDS011;66072;50.238;19.228;2023-04-02T13:56:45;12.30;;;7.70;;
77117;SDS011;66072;50.238;19.228;2023-04-02T13:59:16;12.30;;;7.60;;
77117;SDS011;66072;50.238;19.228;2023-04-02T14:01:45;15.70;;;9.30;;
77117;SDS011;66072;50.238;19.228;2023-04-02T14:04:16;15.80;;;9.70;;
77117;SDS011;66072;50.238;19.228;2023-04-02T14:09:36;10.30;;;6.00;;
77117;SDS011;66072;50.238;19.228;2023-04-02T14:43:22;11.10;;;6.50;;
77117;SDS011;66072;50.238;19.228;2023-04-02T14:46:01;7.00;;;4.10;;
77117;SDS011;66072;50.238;19.228;2023-04-02T14:59:58;16.80;;;8.80;;
77117;SDS011;66072;50.238;19.228;2023-04-02T15:02:41;10.30;;;8.00;;
77117;SDS011;66072;50.238;19.228;2023-04-02T15:05:18;11.80;;;6.60;;
77117;SDS011;66072;50.238;19.228;2023-04-02T15:07:52;13.00;;;8.60;;
77117;SDS011;66072;50.238;19.228;2023-04-02T15:10:31;12.10;;;8.60;;
77117;SDS011;66072;50.238;19.228;2023-04-02T15:13:05;12.20;;;7.70;;
77117;SDS011;66072;50.238;19.228;2023-04-02T15:18:11;9.80;;;7.00;;
77117;SDS011;66072;50.238;19.228;2023-04-02T15:31:18;13.40;;;8.80;;
77117;SDS011;66072;50.238;19.228;2023-04-02T15:33:58;9.30;;;6.30;;
77117;SDS011;66072;50.238;19.228;2023-04-02T15:39:32;12.30;;;7.70;;
77117;SDS011;66072;50.238;19.228;2023-04-02T15:44:52;10.40;;;6.30;;
77117;SDS011;66072;50.238;19.228;2023-04-02T16:07:25;11.20;;;7.80;;
77117;SDS011;66072;50.238;19.228;2023-04-02T16:12:36;9.40;;;5.70;;
77117;SDS011;66072;50.238;19.228;2023-04-02T16:18:02;7.10;;;5.10;;
77117;SDS011;66072;50.238;19.228;2023-04-02T16:20:35;8.10;;;5.00;;
77117;SDS011;66072;50.238;19.228;2023-04-02T16:23:10;6.60;;;4.60;;
77117;SDS011;66072;50.238;19.228;2023-04-02T16:25:43;7.50;;;5.20;;
77117;SDS011;66072;50.238;19.228;2023-04-02T16:28:23;8.20;;;4.00;;
77117;SDS011;66072;50.238;19.228;2023-04-02T16:34:05;5.60;;;3.10;;
77117;SDS011;66072;50.238;19.228;2023-04-02T16:42:16;5.10;;;3.00;;
77117;SDS011;66072;50.238;19.228;2023-04-02T16:45:24;7.70;;;5.40;;
77117;SDS011;66072;50.238;19.228;2023-04-02T16:53:34;10.30;;;6.70;;
77117;SDS011;66072;50.238;19.228;2023-04-02T16:59:56;20.50;;;7.50;;
77117;SDS011;66072;50.238;19.228;2023-04-02T17:08:41;9.40;;;4.60;;
77117;SDS011;66072;50.238;19.228;2023-04-02T17:14:39;6.00;;;4.30;;
77117;SDS011;66072;50.238;19.228;2023-04-02T17:17:13;4.90;;;3.00;;
77117;SDS011;66072;50.238;19.228;2023-04-02T17:19:42;5.20;;;3.10;;
77117;SDS011;66072;50.238;19.228;2023-04-02T17:22:16;6.10;;;4.10;;
77117;SDS011;66072;50.238;19.228;2023-04-02T17:24:48;5.50;;;3.90;;
77117;SDS011;66072;50.238;19.228;2023-04-02T17:27:21;17.10;;;5.30;;
77117;SDS011;66072;50.238;19.228;2023-04-02T17:30:17;6.90;;;4.30;;
77117;SDS011;66072;50.238;19.228;2023-04-02T17:32:45;6.70;;;4.20;;
77117;SDS011;66072;50.238;19.228;2023-04-02T17:35:24;8.30;;;4.80;;
77117;SDS011;66072;50.238;19.228;2023-04-02T17:38:03;7.80;;;4.40;;
77117;SDS011;66072;50.238;19.228;2023-04-02T17:59:53;7.60;;;4.80;;
77117;SDS011;66072;50.238;19.228;2023-04-02T18:02:35;7.60;;;5.00;;
77117;SDS011;66072;50.238;19.228;2023-04-02T18:12:57;7.10;;;4.60;;
77117;SDS011;66072;50.238;19.228;2023-04-02T18:15:44;7.50;;;5.10;;
77117;SDS011;66072;50.238;19.228;2023-04-02T18:18:27;13.80;;;6.00;;
77117;SDS011;66072;50.238;19.228;2023-04-02T18:27:20;9.40;;;6.10;;
77117;SDS011;66072;50.238;19.228;2023-04-02T18:29:58;7.30;;;4.60;;
77117;SDS011;66072;50.238;19.228;2023-04-02T18:35:33;10.00;;;6.10;;
77117;SDS011;66072;50.238;19.228;2023-04-02T18:46:51;9.70;;;5.70;;
77117;SDS011;66072;50.238;19.228;2023-04-02T18:49:27;7.10;;;4.20;;
77117;SDS011;66072;50.238;19.228;2023-04-02T18:52:02;8.50;;;5.00;;
77117;SDS011;66072;50.238;19.228;2023-04-02T18:57:32;9.10;;;5.10;;
77117;SDS011;66072;50.238;19.228;2023-04-02T19:00:24;11.30;;;7.00;;
77117;SDS011;66072;50.238;19.228;2023-04-02T19:03:14;6.10;;;3.90;;
77117;SDS011;66072;50.238;19.228;2023-04-02T19:05:48;7.60;;;5.00;;
77117;SDS011;66072;50.238;19.228;2023-04-02T19:08:27;13.00;;;7.40;;
77117;SDS011;66072;50.238;19.228;2023-04-02T19:11:14;11.00;;;6.20;;
77117;SDS011;66072;50.238;19.228;2023-04-02T19:13:44;4.70;;;3.40;;
77117;SDS011;66072;50.238;19.228;2023-04-02T19:16:24;6.70;;;3.60;;
77117;SDS011;66072;50.238;19.228;2023-04-02T19:19:05;8.70;;;5.70;;
77117;SDS011;66072;50.238;19.228;2023-04-02T19:22:00;9.90;;;6.90;;
77117;SDS011;66072;50.238;19.228;2023-04-02T19:24:54;8.20;;;6.00;;
77117;SDS011;66072;50.238;19.228;2023-04-02T19:42:11;8.80;;;5.10;;
77117;SDS011;66072;50.238;19.228;2023-04-02T19:45:00;9.40;;;6.20;;
77117;SDS011;66072;50.238;19.228;2023-04-02T19:47:29;10.00;;;6.40;;
77117;SDS011;66072;50.238;19.228;2023-04-02T19:49:56;8.00;;;5.20;;
77117;SDS011;66072;50.238;19.228;2023-04-02T19:52:24;6.90;;;4.00;;
77117;SDS011;66072;50.238;19.228;2023-04-02T19:54:52;10.50;;;5.80;;
77117;SDS011;66072;50.238;19.228;2023-04-02T19:57:19;13.40;;;8.00;;
77117;SDS011;66072;50.238;19.228;2023-04-02T19:59:47;9.60;;;6.60;;
77117;SDS011;66072;50.238;19.228;2023-04-02T20:02:15;10.30;;;6.90;;
77117;SDS011;66072;50.238;19.228;2023-04-02T20:04:42;9.60;;;6.60;;
77117;SDS011;66072;50.238;19.228;2023-04-02T20:07:10;8.90;;;6.30;;
77117;SDS011;66072;50.238;19.228;2023-04-02T20:09:38;8.50;;;4.80;;
77117;SDS011;66072;50.238;19.228;2023-04-02T20:12:05;8.80;;;6.30;;
77117;SDS011;66072;50.238;19.228;2023-04-02T20:14:33;9.10;;;5.80;;
77117;SDS011;66072;50.238;19.228;2023-04-02T20:17:01;8.40;;;6.20;;
77117;SDS011;66072;50.238;19.228;2023-04-02T20:19:28;10.00;;;6.10;;
77117;SDS011;66072;50.238;19.228;2023-04-02T20:21:56;11.30;;;6.80;;
77117;SDS011;66072;50.238;19.228;2023-04-02T20:24:24;9.50;;;5.80;;
77117;SDS011;66072;50.238;19.228;2023-04-02T20:26:51;10.80;;;5.60;;
77117;SDS011;66072;50.238;19.228;2023-04-02T20:29:19;8.10;;;5.30;;
77117;SDS011;66072;50.238;19.228;2023-04-02T20:31:46;7.70;;;4.20;;
77117;SDS011;66072;50.238;19.228;2023-04-02T20:34:14;7.50;;;5.20;;
77117;SDS011;66072;50.238;19.228;2023-04-02T20:36:42;7.40;;;4.50;;
77117;SDS011;66072;50.238;19.228;2023-04-02T20:39:10;9.70;;;5.30;;
77117;SDS011;66072;50.238;19.228;2023-04-02T20:41:37;7.00;;;4.20;;
77117;SDS011;66072;50.238;19.228;2023-04-02T20:44:05;6.10;;;4.20;;
77117;SDS011;66072;50.238;19.228;2023-04-02T20:46:32;6.40;;;4.60;;
77117;SDS011;66072;50.238;19.228;2023-04-02T20:49:00;5.90;;;3.60;;
77117;SDS011;66072;50.238;19.228;2023-04-02T20:51:28;7.10;;;4.50;;
77117;SDS011;66072;50.238;19.228;2023-04-02T20:53:56;8.40;;;4.60;;
77117;SDS011;66072;50.238;19.228;2023-04-02T20:56:24;8.90;;;5.60;;
77117;SDS011;66072;50.238;19.228;2023-04-02T20:58:52;8.80;;;4.80;;
77117;SDS011;66072;50.238;19.228;2023-04-02T21:01:21;5.40;;;3.60;;
77117;SDS011;66072;50.238;19.228;2023-04-02T21:03:57;7.20;;;4.40;;
77117;SDS011;66072;50.238;19.228;2023-04-02T21:06:28;6.90;;;4.60;;